Terminal Aerodrome Forecast
Issued by NWS Wilmington, NC

Home | Current Version | Previous Version | Text Only | Print | Product List | Glossary On
Versions: 1 2 3 4 5 6 7 8 9 10 11 12 13 14 15 16 17 18 19 20 21 22 23 24 25 26 27 28 29
000
FTUS42 KILM 182335
TAFFLO
TAF
KFLO 182335Z 1900/1924 14006KT P6SM VCSH SCT025 BKN035 BKN090
     FM190600 09003KT 4SM BR VCSH BKN007 OVC015
      TEMPO 1908/1912 2SM -RA BR SCT004 OVC007
     FM191200 10006KT 5SM -SHRA SCT007 BKN015
     FM191400 13010KT 3SM SHRA BKN012
     FM191700 16011G18KT 6SM -RA BR BKN007 OVC012=

USA.gov is the U.S. government's official web portal to all federal, state and local government web resources and services.